Station History


Daily Summary for March 5, 2012 Units:  English    Metric   Both
« Previous Day
Next Day »
Daily Weekly Monthly Yearly Custom
  High: Low: Average:
Temperature: 79.0 °F 41.3 °F 58.5 °F
Dew Point: 48.5 °F 39.2 °F 44.6 °F
Humidity: 93% 31% 65%
Wind Speed: 5.8mph 0.0mph 2.2mph
Wind Gust: 5.8mph - -
Wind- - WSW
Pressure: 30.07 in 29.89 in -
Precipitation: 0.00 in    
Historical Graphs
 
 
Tabular Data for March 5, 2012
Time Temperature Dew Point Pressure Wind Wind Speed Wind Gust Humidity Rainfall Rate (Hourly)
00:03 48.5 °F 43.6 °F 30.05 in Calm     83% 0.00 in
00:08 48.5 °F 43.6 °F 30.05 in Calm     83% 0.00 in
00:13 48.5 °F 43.6 °F 30.05 in Calm     83% 0.00 in
00:18 48.5 °F 43.6 °F 30.05 in Calm     83% 0.00 in
00:23 48.5 °F 43.6 °F 30.05 in Calm     83% 0.00 in
00:28 48.4 °F 43.5 °F 30.05 in Calm     83% 0.00 in
00:33 48.5 °F 43.9 °F 30.05 in Calm     84% 0.00 in
00:38 48.5 °F 43.6 °F 30.04 in Calm     83% 0.00 in
00:43 48.4 °F 43.5 °F 30.04 in Calm     83% 0.00 in
00:48 48.1 °F 43.2 °F 30.04 in Calm     83% 0.00 in
00:53 47.8 °F 42.9 °F 30.04 in Calm     83% 0.00 in
00:58 47.5 °F 42.6 °F 30.04 in Calm     83% 0.00 in
01:03 47.2 °F 42.6 °F 30.04 in Calm     84% 0.00 in
01:08 47.0 °F 42.4 °F 30.04 in Calm     84% 0.00 in
01:13 46.7 °F 42.4 °F 30.04 in Calm     85% 0.00 in
01:18 46.6 °F 42.6 °F 30.04 in Calm     86% 0.00 in
01:23 46.5 °F 42.8 °F 30.04 in Calm     87% 0.00 in
01:28 46.4 °F 42.4 °F 30.04 in Calm     86% 0.00 in
01:33 46.8 °F 43.1 °F 30.04 in Calm     87% 0.00 in
01:38 46.9 °F 42.9 °F 30.04 in Calm     86% 0.00 in
01:43 46.9 °F 42.9 °F 30.04 in Calm     86% 0.00 in
01:48 46.8 °F 42.8 °F 30.04 in Calm     86% 0.00 in
01:53 46.7 °F 42.7 °F 30.04 in Calm     86% 0.00 in
01:58 46.6 °F 42.6 °F 30.04 in Calm     86% 0.00 in
02:03 46.4 °F 42.7 °F 30.04 in Calm     87% 0.00 in
02:08 46.5 °F 42.8 °F 30.05 in Calm     87% 0.00 in
02:13 46.5 °F 42.8 °F 30.05 in Calm     87% 0.00 in
02:18 46.5 °F 42.8 °F 30.05 in Calm     87% 0.00 in
02:23 46.4 °F 42.4 °F 30.05 in Calm     86% 0.00 in
02:28 46.3 °F 42.3 °F 30.05 in Calm     86% 0.00 in
02:33 46.1 °F 42.4 °F 30.05 in Calm     87% 0.00 in
02:38 46.0 °F 42.0 °F 30.05 in Calm     86% 0.00 in
02:43 45.7 °F 42.1 °F 30.05 in Calm     87% 0.00 in
02:48 45.5 °F 41.6 °F 30.05 in Calm     86% 0.00 in
02:53 45.2 °F 41.6 °F 30.05 in Calm     87% 0.00 in
02:58 45.0 °F 41.4 °F 30.05 in Calm     87% 0.00 in
03:03 44.9 °F 41.6 °F 30.05 in Calm     88% 0.00 in
03:08 44.7 °F 41.4 °F 30.05 in Calm     88% 0.00 in
03:13 44.7 °F 41.4 °F 30.05 in Calm     88% 0.00 in
03:18 44.4 °F 41.1 °F 30.05 in Calm     88% 0.00 in
03:23 44.2 °F 40.9 °F 30.04 in Calm     88% 0.00 in
03:28 44.1 °F 40.8 °F 30.04 in Calm     88% 0.00 in
03:34 43.9 °F 40.6 °F 30.04 in Calm     88% 0.00 in
03:39 43.7 °F 40.4 °F 30.04 in Calm     88% 0.00 in
03:44 43.5 °F 40.5 °F 30.04 in Calm     89% 0.00 in
03:49 43.3 °F 40.3 °F 30.04 in Calm     89% 0.00 in
03:54 43.2 °F 40.2 °F 30.04 in Calm     89% 0.00 in
03:59 43.1 °F 40.1 °F 30.04 in Calm     89% 0.00 in
04:04 42.9 °F 39.9 °F 30.04 in Calm     89% 0.00 in
04:09 42.8 °F 40.1 °F 30.03 in Calm     90% 0.00 in
04:14 42.8 °F 40.1 °F 30.03 in Calm     90% 0.00 in
04:19 42.9 °F 40.2 °F 30.03 in Calm     90% 0.00 in
04:24 42.8 °F 40.1 °F 30.03 in Calm     90% 0.00 in
04:29 42.7 °F 40.0 °F 30.03 in Calm     90% 0.00 in
04:34 42.6 °F 39.9 °F 30.03 in Calm     90% 0.00 in
04:39 42.5 °F 39.8 °F 30.03 in Calm     90% 0.00 in
04:44 42.4 °F 40.0 °F 30.03 in Calm     91% 0.00 in
04:49 42.2 °F 39.5 °F 30.03 in Calm     90% 0.00 in
04:54 42.0 °F 39.3 °F 30.03 in Calm     90% 0.00 in
04:59 42.0 °F 39.6 °F 30.03 in Calm     91% 0.00 in
05:04 42.0 °F 39.6 °F 30.03 in Calm     91% 0.00 in
05:09 42.0 °F 39.6 °F 30.03 in Calm     91% 0.00 in
05:14 42.0 °F 39.6 °F 30.03 in Calm     91% 0.00 in
05:19 41.9 °F 39.5 °F 30.03 in Calm     91% 0.00 in
05:24 41.8 °F 39.4 °F 30.03 in Calm     91% 0.00 in
05:29 41.7 °F 39.5 °F 30.03 in Calm     92% 0.00 in
05:34 41.6 °F 39.4 °F 30.03 in Calm     92% 0.00 in
05:39 41.5 °F 39.3 °F 30.03 in Calm     92% 0.00 in
05:44 41.4 °F 39.3 °F 30.03 in Calm     92% 0.00 in
05:49 41.3 °F 39.2 °F 30.04 in Calm     92% 0.00 in
05:54 41.4 °F 39.3 °F 30.04 in Calm     92% 0.00 in
05:59 41.7 °F 39.8 °F 30.04 in Calm     93% 0.00 in
06:04 42.2 °F 40.3 °F 30.04 in Calm     93% 0.00 in
06:09 42.3 °F 40.1 °F 30.04 in Calm     92% 0.00 in
06:14 42.2 °F 39.8 °F 30.04 in Calm     91% 0.00 in
06:19 41.9 °F 39.5 °F 30.04 in Calm     91% 0.00 in
06:24 41.7 °F 39.3 °F 30.04 in Calm     91% 0.00 in
06:29 41.6 °F 39.4 °F 30.04 in Calm     92% 0.00 in
06:34 41.7 °F 39.5 °F 30.04 in Calm     92% 0.00 in
06:39 41.7 °F 39.5 °F 30.04 in Calm     92% 0.00 in
06:44 41.9 °F 40.0 °F 30.05 in Calm     93% 0.00 in
06:49 42.1 °F 40.2 °F 30.05 in Calm     93% 0.00 in
06:54 42.3 °F 40.4 °F 30.05 in Calm     93% 0.00 in
06:59 42.6 °F 40.7 °F 30.05 in Calm     93% 0.00 in
07:04 43.0 °F 41.1 °F 30.05 in Calm     93% 0.00 in
07:09 43.4 °F 41.2 °F 30.05 in Calm     92% 0.00 in
07:14 43.7 °F 41.5 °F 30.05 in Calm     92% 0.00 in
07:19 44.3 °F 41.8 °F 30.06 in Calm     91% 0.00 in
07:24 44.6 °F 42.1 °F 30.06 in Calm     91% 0.00 in
07:30 45.1 °F 42.6 °F 30.06 in Calm     91% 0.00 in
07:35 45.7 °F 43.2 °F 30.06 in Calm     91% 0.00 in
07:36 45.8 °F 43.0 °F 30.06 in Calm     90% 0.00 in
07:40 46.4 °F 43.3 °F 30.06 in Calm     89% 0.00 in
07:41 46.4 °F 43.3 °F 30.06 in Calm     89% 0.00 in
07:46 47.2 °F 43.8 °F 30.06 in Calm     88% 0.00 in
07:51 48.1 °F 44.1 °F 30.06 in Calm     86% 0.00 in
07:56 49.0 °F 44.4 °F 30.06 in Calm     84% 0.00 in
08:01 49.7 °F 44.7 °F 30.06 in Calm     83% 0.00 in
08:06 50.4 °F 45.1 °F 30.06 in Calm     82% 0.00 in
08:11 51.1 °F 45.1 °F 30.06 in Calm     80% 0.00 in
08:16 52.0 °F 45.4 °F 30.06 in Calm     78% 0.00 in
08:21 53.0 °F 45.6 °F 30.06 in Calm     76% 0.00 in
08:26 53.9 °F 45.4 °F 30.06 in Calm     73% 0.00 in
08:31 55.2 °F 45.6 °F 30.06 in Calm     70% 0.00 in
08:36 56.5 °F 45.3 °F 30.06 in SSW 1.1 mph 1.1 mph 66% 0.00 in
08:41 57.8 °F 44.4 °F 30.06 in SW 2.3 mph 2.3 mph 61% 0.00 in
08:46 58.8 °F 44.5 °F 30.07 in SSW 1.1 mph 1.1 mph 59% 0.00 in
08:51 59.3 °F 45.0 °F 30.07 in Calm     59% 0.00 in
08:56 59.8 °F 44.5 °F 30.07 in SSW 1.1 mph 1.1 mph 57% 0.00 in
09:01 60.2 °F 44.9 °F 30.06 in SW 1.1 mph 1.1 mph 57% 0.00 in
09:06 60.6 °F 45.7 °F 30.06 in NW 1.1 mph 1.1 mph 58% 0.00 in
09:11 60.9 °F 45.6 °F 30.07 in SSW 2.3 mph   57% 0.00 in
09:16 61.2 °F 45.8 °F 30.07 in Calm   0.4 mph 57% 0.00 in
09:21 61.6 °F 46.7 °F 30.07 in Calm     58% 0.00 in
09:26 61.9 °F 46.0 °F 30.07 in SW 1.0 mph   56% 0.00 in
09:31 62.1 °F 44.8 °F 30.07 in SW 1.0 mph 1.0 mph 53% 0.00 in
09:36 62.6 °F 45.2 °F 30.07 in Calm   0.4 mph 53% 0.00 in
09:42 63.2 °F 44.8 °F 30.07 in SW 1.1 mph 1.1 mph 51% 0.00 in
09:47 63.6 °F 45.1 °F 30.07 in Calm     51% 0.00 in
09:52 63.9 °F 44.9 °F 30.06 in Calm     50% 0.00 in
09:57 64.1 °F 45.1 °F 30.06 in SSW 1.1 mph 1.1 mph 50% 0.00 in
10:02 64.5 °F 44.9 °F 30.06 in WSW 2.3 mph 2.3 mph 49% 0.00 in
10:07 64.9 °F 44.7 °F 30.06 in WNW 2.3 mph 2.3 mph 48% 0.00 in
10:12 65.2 °F 45.0 °F 30.06 in SW 1.1 mph 1.1 mph 48% 0.00 in
10:17 65.5 °F 45.3 °F 30.06 in Calm     48% 0.00 in
10:22 65.6 °F 45.9 °F 30.06 in Calm   0.1 mph 49% 0.00 in
10:27 66.1 °F 45.8 °F 30.05 in SW 1.1 mph   48% 0.00 in
10:32 66.7 °F 46.9 °F 30.05 in WSW 1.1 mph   49% 0.00 in
10:37 67.5 °F 46.6 °F 30.05 in West 2.3 mph 2.3 mph 47% 0.00 in
10:42 68.1 °F 46.5 °F 30.05 in Calm     46% 0.00 in
10:47 68.4 °F 46.8 °F 30.05 in SW 3.5 mph 3.5 mph 46% 0.00 in
10:52 68.8 °F 45.4 °F 30.05 in WSW 1.1 mph 1.1 mph 43% 0.00 in
10:57 69.2 °F 45.7 °F 30.05 in WSW 1.1 mph 1.1 mph 43% 0.00 in
11:02 69.4 °F 45.9 °F 30.05 in NW 1.1 mph 1.1 mph 43% 0.00 in
11:07 69.7 °F 45.6 °F 30.05 in NW 3.0 mph 3.0 mph 42% 0.00 in
11:12 69.6 °F 46.1 °F 30.05 in NNW 1.1 mph   43% 0.00 in
11:17 70.1 °F 46.6 °F 30.04 in NNE 2.3 mph 2.3 mph 43% 0.00 in
11:22 70.9 °F 48.5 °F 30.04 in West 1.1 mph   45% 0.00 in
11:27 71.3 °F 46.4 °F 30.04 in West 1.1 mph 1.1 mph 41% 0.00 in
11:32 71.4 °F 45.8 °F 30.04 in NNE 1.1 mph 1.1 mph 40% 0.00 in
11:37 72.0 °F 45.0 °F 30.04 in WSW 2.0 mph 2.0 mph 38% 0.00 in
11:42 72.6 °F 44.8 °F 30.04 in SW 1.1 mph 1.1 mph 37% 0.00 in
11:47 73.3 °F 45.4 °F 30.03 in NW 1.1 mph 1.1 mph 37% 0.00 in
11:52 73.6 °F 45.7 °F 30.03 in NNW 1.1 mph 1.1 mph 37% 0.00 in
11:57 73.9 °F 46.0 °F 30.03 in WNW 1.0 mph 1.0 mph 37% 0.00 in
12:02 73.9 °F 46.0 °F 30.02 in NW 2.3 mph 2.3 mph 37% 0.00 in
12:08 74.2 °F 47.0 °F 30.02 in NNE 2.3 mph 2.3 mph 38% 0.00 in
12:13 74.7 °F 46.0 °F 30.02 in North 2.3 mph 2.3 mph 36% 0.00 in
12:18 74.9 °F 45.4 °F 30.01 in West 2.3 mph 2.3 mph 35% 0.00 in
12:23 75.3 °F 45.7 °F 30.01 in SSE 1.1 mph 1.1 mph 35% 0.00 in
12:28 75.8 °F 47.7 °F 30.00 in SSW 2.3 mph 2.3 mph 37% 0.00 in
12:33 75.9 °F 45.5 °F 30.00 in SW 1.1 mph 1.1 mph 34% 0.00 in
12:38 76.4 °F 46.7 °F 30.00 in WSW 1.1 mph 1.1 mph 35% 0.00 in
12:43 76.7 °F 46.2 °F 30.00 in SE 2.3 mph 2.3 mph 34% 0.00 in
12:48 76.9 °F 46.4 °F 29.99 in SW 1.1 mph 1.1 mph 34% 0.00 in
12:53 77.0 °F 46.5 °F 29.99 in West 2.3 mph 2.3 mph 34% 0.00 in
12:58 77.3 °F 48.3 °F 29.99 in NW 3.5 mph 3.5 mph 36% 0.00 in
13:03 77.5 °F 46.9 °F 29.98 in WNW 2.3 mph 2.3 mph 34% 0.00 in
13:08 77.8 °F 47.2 °F 29.98 in WNW 1.1 mph 1.1 mph 34% 0.00 in
13:13 77.8 °F 47.2 °F 29.98 in North 3.5 mph 3.5 mph 34% 0.00 in
13:18 78.1 °F 46.6 °F 29.97 in North 3.5 mph 3.5 mph 33% 0.00 in
13:23 77.8 °F 47.2 °F 29.97 in WNW 2.3 mph 2.3 mph 34% 0.00 in
13:28 78.0 °F 47.4 °F 29.97 in North 3.5 mph 3.5 mph 34% 0.00 in
13:33 78.4 °F 47.7 °F 29.97 in WSW 3.0 mph 3.0 mph 34% 0.00 in
13:38 78.6 °F 47.9 °F 29.96 in SW 3.5 mph 3.5 mph 34% 0.00 in
13:43 78.6 °F 47.1 °F 29.96 in South 1.1 mph 1.1 mph 33% 0.00 in
13:48 78.7 °F 47.2 °F 29.96 in WNW 4.6 mph 4.6 mph 33% 0.00 in
13:53 78.7 °F 46.4 °F 29.95 in NW 3.5 mph 3.5 mph 32% 0.00 in
13:58 78.8 °F 47.3 °F 29.95 in NNE 5.8 mph 5.8 mph 33% 0.00 in
14:03 78.5 °F 47.0 °F 29.95 in SSW 3.5 mph 3.5 mph 33% 0.00 in
14:09 78.5 °F 47.0 °F 29.95 in West 2.3 mph 2.3 mph 33% 0.00 in
14:14 78.7 °F 46.4 °F 29.95 in NE 5.8 mph 5.8 mph 32% 0.00 in
14:19 78.7 °F 46.4 °F 29.94 in South 3.5 mph 3.5 mph 32% 0.00 in
14:24 78.9 °F 45.7 °F 29.94 in ENE 3.5 mph 3.5 mph 31% 0.00 in
14:29 78.7 °F 46.4 °F 29.94 in NW 2.3 mph 2.3 mph 32% 0.00 in
14:34 78.7 °F 46.4 °F 29.94 in WSW 1.1 mph 1.1 mph 32% 0.00 in
14:39 78.4 °F 46.1 °F 29.94 in WNW 3.5 mph 3.5 mph 32% 0.00 in
14:44 78.5 °F 46.2 °F 29.94 in WSW 2.3 mph 2.3 mph 32% 0.00 in
14:49 78.8 °F 46.4 °F 29.93 in NW 1.1 mph 1.1 mph 32% 0.00 in
14:54 78.8 °F 46.4 °F 29.93 in WSW 3.5 mph 3.5 mph 32% 0.00 in
14:59 79.0 °F 47.4 °F 29.93 in Calm     33% 0.00 in
15:04 78.9 °F 48.1 °F 29.93 in NE 1.1 mph 1.1 mph 34% 0.00 in
15:09 78.4 °F 46.9 °F 29.93 in West 3.5 mph 3.5 mph 33% 0.00 in
15:14 78.1 °F 47.4 °F 29.93 in NW 1.1 mph 1.1 mph 34% 0.00 in
15:19 78.3 °F 48.4 °F 29.92 in North 2.3 mph 2.3 mph 35% 0.00 in
15:24 77.9 °F 46.5 °F 29.92 in North 3.5 mph 3.5 mph 33% 0.00 in
15:29 77.4 °F 46.8 °F 29.92 in NE 1.1 mph 1.1 mph 34% 0.00 in
15:34 77.4 °F 46.0 °F 29.92 in NNW 2.3 mph 2.3 mph 33% 0.00 in
15:40 77.7 °F 47.1 °F 29.92 in NW 1.1 mph 1.1 mph 34% 0.00 in
15:45 78.1 °F 46.6 °F 29.91 in West 2.3 mph 2.3 mph 33% 0.00 in
15:50 78.1 °F 45.8 °F 29.91 in West 3.5 mph 3.5 mph 32% 0.00 in
15:55 78.3 °F 47.6 °F 29.91 in West 1.1 mph 1.1 mph 34% 0.00 in
16:00 78.4 °F 46.9 °F 29.91 in WNW 2.3 mph 2.3 mph 33% 0.00 in
16:05 77.8 °F 46.4 °F 29.91 in WNW 1.1 mph 1.1 mph 33% 0.00 in
16:10 78.2 °F 45.9 °F 29.91 in WSW 3.5 mph 3.5 mph 32% 0.00 in
16:15 77.9 °F 47.3 °F 29.91 in NW 2.3 mph 2.3 mph 34% 0.00 in
16:20 77.7 °F 47.1 °F 29.91 in West 2.3 mph 2.3 mph 34% 0.00 in
16:25 77.3 °F 48.3 °F 29.91 in WSW 4.6 mph 4.6 mph 36% 0.00 in
16:30 76.8 °F 47.1 °F 29.91 in WNW 5.8 mph 5.8 mph 35% 0.00 in
16:35 76.6 °F 47.6 °F 29.91 in North 2.3 mph 2.3 mph 36% 0.00 in
16:40 76.4 °F 47.5 °F 29.91 in SW 2.3 mph 2.3 mph 36% 0.00 in
16:45 76.5 °F 47.6 °F 29.91 in WSW 1.1 mph 1.1 mph 36% 0.00 in
16:50 76.5 °F 47.6 °F 29.91 in WSW 2.0 mph 2.0 mph 36% 0.00 in
16:55 76.0 °F 47.1 °F 29.90 in West 3.0 mph 3.0 mph 36% 0.00 in
17:00 75.1 °F 47.0 °F 29.90 in NW 1.1 mph 1.1 mph 37% 0.00 in
17:05 74.6 °F 47.3 °F 29.90 in WSW 1.1 mph 1.1 mph 38% 0.00 in
17:10 74.0 °F 47.5 °F 29.90 in NNW 3.5 mph 3.5 mph 39% 0.00 in
17:15 73.6 °F 47.8 °F 29.90 in Calm     40% 0.00 in
17:20 73.2 °F 47.4 °F 29.90 in Calm     40% 0.00 in
17:25 72.8 °F 47.1 °F 29.90 in Calm     40% 0.00 in
17:30 72.3 °F 47.3 °F 29.90 in North 1.1 mph   41% 0.00 in
17:35 71.9 °F 46.9 °F 29.90 in Calm     41% 0.00 in
17:36 71.9 °F 46.9 °F 29.90 in Calm     41% 0.00 in
17:41 71.4 °F 46.5 °F 29.90 in Calm     41% 0.00 in
17:46 70.9 °F 46.7 °F 29.90 in Calm     42% 0.00 in
17:51 70.3 °F 46.7 °F 29.90 in Calm     43% 0.00 in
17:56 69.5 °F 46.6 °F 29.90 in Calm     44% 0.00 in
18:01 68.5 °F 46.9 °F 29.90 in Calm     46% 0.00 in
18:06 67.5 °F 46.6 °F 29.90 in Calm     47% 0.00 in
18:11 66.5 °F 46.7 °F 29.89 in Calm     49% 0.00 in
18:16 65.4 °F 46.3 °F 29.90 in Calm     50% 0.00 in
18:21 64.5 °F 46.5 °F 29.90 in Calm     52% 0.00 in
18:26 63.7 °F 46.7 °F 29.90 in Calm     54% 0.00 in
18:31 63.0 °F 46.1 °F 29.90 in Calm     54% 0.00 in
18:36 62.2 °F 45.8 °F 29.90 in Calm     55% 0.00 in
18:41 61.6 °F 46.7 °F 29.90 in Calm     58% 0.00 in
18:46 61.3 °F 46.4 °F 29.91 in Calm     58% 0.00 in
18:51 60.9 °F 46.0 °F 29.90 in Calm     58% 0.00 in
18:56 60.5 °F 46.5 °F 29.91 in Calm     60% 0.00 in
19:01 60.1 °F 46.2 °F 29.91 in Calm     60% 0.00 in
19:06 60.1 °F 45.7 °F 29.91 in Calm     59% 0.00 in
19:11 60.5 °F 46.1 °F 29.91 in Calm     59% 0.00 in
19:16 60.4 °F 46.0 °F 29.91 in Calm     59% 0.00 in
19:21 59.9 °F 45.5 °F 29.91 in Calm     59% 0.00 in
19:26 59.3 °F 45.8 °F 29.91 in Calm     61% 0.00 in
19:31 58.7 °F 45.7 °F 29.91 in Calm     62% 0.00 in
19:36 58.3 °F 46.2 °F 29.91 in Calm     64% 0.00 in
19:41 58.6 °F 46.5 °F 29.91 in Calm     64% 0.00 in
19:46 58.8 °F 46.6 °F 29.91 in Calm     64% 0.00 in
19:51 58.5 °F 46.4 °F 29.91 in Calm     64% 0.00 in
19:56 58.0 °F 46.3 °F 29.91 in Calm     65% 0.00 in
20:01 57.5 °F 46.2 °F 29.91 in Calm     66% 0.00 in
20:06 57.1 °F 46.2 °F 29.91 in Calm     67% 0.00 in
20:11 56.6 °F 46.2 °F 29.91 in Calm     68% 0.00 in
20:16 56.1 °F 46.1 °F 29.91 in Calm     69% 0.00 in
20:21 55.7 °F 46.1 °F 29.91 in Calm     70% 0.00 in
20:26 55.3 °F 46.1 °F 29.91 in Calm     71% 0.00 in
20:32 55.0 °F 46.5 °F 29.91 in Calm     73% 0.00 in
20:37 54.8 °F 46.3 °F 29.91 in Calm     73% 0.00 in
20:42 54.5 °F 46.0 °F 29.91 in Calm     73% 0.00 in
20:47 54.2 °F 45.7 °F 29.91 in Calm     73% 0.00 in
20:52 53.9 °F 46.2 °F 29.92 in Calm     75% 0.00 in
20:57 53.7 °F 46.0 °F 29.92 in Calm     75% 0.00 in
21:00 53.5 °F 45.8 °F 29.92 in Calm     75% 0.00 in
21:01 53.4 °F 45.7 °F 29.92 in Calm     75% 0.00 in
21:06 53.1 °F 45.7 °F 29.92 in Calm     76% 0.00 in
21:11 52.9 °F 45.9 °F 29.92 in Calm     77% 0.00 in
21:16 52.7 °F 46.0 °F 29.92 in Calm     78% 0.00 in
21:21 52.5 °F 45.8 °F 29.92 in Calm     78% 0.00 in
21:26 52.3 °F 45.6 °F 29.92 in Calm     78% 0.00 in
21:31 52.2 °F 45.5 °F 29.92 in Calm     78% 0.00 in
21:36 52.0 °F 45.7 °F 29.92 in Calm     79% 0.00 in
21:41 51.9 °F 45.9 °F 29.92 in Calm     80% 0.00 in
21:46 51.7 °F 45.7 °F 29.92 in Calm     80% 0.00 in
21:51 51.7 °F 46.1 °F 29.92 in Calm     81% 0.00 in
21:56 51.6 °F 46.0 °F 29.92 in Calm     81% 0.00 in
22:01 51.5 °F 45.5 °F 29.92 in Calm     80% 0.00 in
22:07 51.7 °F 45.7 °F 29.92 in Calm     80% 0.00 in
22:12 52.0 °F 46.0 °F 29.92 in Calm     80% 0.00 in
22:17 52.0 °F 45.7 °F 29.92 in Calm     79% 0.00 in
22:22 51.9 °F 45.6 °F 29.92 in Calm     79% 0.00 in
22:27 51.6 °F 45.6 °F 29.92 in Calm     80% 0.00 in
22:32 51.3 °F 45.3 °F 29.92 in Calm     80% 0.00 in
22:37 51.0 °F 45.0 °F 29.92 in Calm     80% 0.00 in
22:42 50.8 °F 45.2 °F 29.92 in Calm     81% 0.00 in
22:47 50.5 °F 44.9 °F 29.92 in Calm     81% 0.00 in
22:52 50.4 °F 45.1 °F 29.92 in Calm     82% 0.00 in
22:57 50.6 °F 45.6 °F 29.92 in Calm     83% 0.00 in
23:02 51.2 °F 45.9 °F 29.92 in Calm     82% 0.00 in
23:07 51.8 °F 45.8 °F 29.92 in Calm     80% 0.00 in
23:12 52.2 °F 45.5 °F 29.92 in Calm     78% 0.00 in
23:17 52.4 °F 45.4 °F 29.92 in Calm     77% 0.00 in
23:22 52.5 °F 45.5 °F 29.92 in Calm     77% 0.00 in
23:27 52.4 °F 45.1 °F 29.91 in Calm     76% 0.00 in
23:32 52.1 °F 44.8 °F 29.92 in Calm     76% 0.00 in
23:37 51.8 °F 44.8 °F 29.91 in Calm     77% 0.00 in
23:42 51.6 °F 45.0 °F 29.92 in Calm     78% 0.00 in
23:47 51.4 °F 45.1 °F 29.92 in Calm     79% 0.00 in
23:52 51.2 °F 44.9 °F 29.92 in Calm     79% 0.00 in
23:57 51.2 °F 44.9 °F 29.92 in Calm     79% 0.00 in
Compliments of Weather Underground